createdAt,value
2018-05-23T00:02:09.059Z,18.12
2018-05-23T00:04:36.868Z,18.15
2018-05-23T00:07:04.683Z,18.14
2018-05-23T00:09:32.454Z,18.13
2018-05-23T00:12:00.167Z,18.06
2018-05-23T00:14:27.875Z,17.87
2018-05-23T00:16:55.534Z,17.92
2018-05-23T00:19:23.308Z,17.95
2018-05-23T00:21:51.034Z,17.91
2018-05-23T00:24:18.734Z,17.85
2018-05-23T00:26:46.499Z,17.75
2018-05-23T00:29:14.310Z,17.65
2018-05-23T00:31:42.131Z,17.60
2018-05-23T00:34:09.943Z,17.63
2018-05-23T00:36:37.760Z,17.67
2018-05-23T00:39:06.449Z,17.71
2018-05-23T00:41:34.171Z,17.80
2018-05-23T00:44:01.976Z,17.70
2018-05-23T00:46:29.642Z,17.64
2018-05-23T00:48:57.394Z,17.68
2018-05-23T00:51:25.110Z,17.80
2018-05-23T00:53:52.825Z,17.82
2018-05-23T00:56:20.545Z,17.90
2018-05-23T00:58:48.360Z,17.90
2018-05-23T01:01:16.018Z,17.95
2018-05-23T01:03:43.744Z,17.96
2018-05-23T01:06:11.448Z,18.00
2018-05-23T01:08:39.302Z,17.98
2018-05-23T01:11:07.027Z,18.05
2018-05-23T01:13:34.844Z,17.95
2018-05-23T01:16:02.609Z,17.97
2018-05-23T01:18:30.421Z,17.88
2018-05-23T01:20:58.240Z,17.65
2018-05-23T01:23:26.055Z,17.63
2018-05-23T01:25:53.871Z,17.57
2018-05-23T01:28:21.636Z,17.56
2018-05-23T01:30:49.355Z,17.51
2018-05-23T01:33:17.067Z,17.53
2018-05-23T01:35:44.929Z,17.48
2018-05-23T01:38:12.694Z,17.53
2018-05-23T01:40:40.398Z,17.64
2018-05-23T01:43:08.122Z,17.66
2018-05-23T01:45:35.781Z,17.51
2018-05-23T01:48:03.547Z,17.53
2018-05-23T01:50:31.264Z,17.65
2018-05-23T01:52:59.076Z,17.61
2018-05-23T01:55:26.942Z,17.52
2018-05-23T01:57:54.708Z,17.41
2018-05-23T02:00:22.364Z,17.28
2018-05-23T02:02:50.032Z,17.41
2018-05-23T02:05:17.694Z,17.37
2018-05-23T02:07:45.346Z,17.32
2018-05-23T02:10:13.018Z,17.22
2018-05-23T02:12:40.783Z,17.33
2018-05-23T02:15:08.550Z,17.25
2018-05-23T02:17:36.274Z,17.37
2018-05-23T02:20:04.079Z,17.42
2018-05-23T02:22:31.741Z,17.40
2018-05-23T02:24:59.607Z,17.43
2018-05-23T02:27:27.373Z,17.35
2018-05-23T02:29:55.237Z,17.44
2018-05-23T02:32:23.000Z,17.43
2018-05-23T02:34:50.871Z,17.45
2018-05-23T02:37:18.633Z,17.44
2018-05-23T02:39:46.502Z,17.34
2018-05-23T02:42:14.263Z,17.27
2018-05-23T02:44:42.131Z,17.37
2018-05-23T02:47:10.001Z,17.39
2018-05-23T02:49:37.773Z,17.40
2018-05-23T02:52:05.531Z,17.22
2018-05-23T02:54:33.291Z,17.35
2018-05-23T02:57:01.016Z,17.40
2018-05-23T02:59:28.819Z,17.42
2018-05-23T03:01:56.482Z,17.42
2018-05-23T03:04:24.251Z,17.34
2018-05-23T03:06:51.958Z,17.42
2018-05-23T03:09:19.777Z,17.27
2018-05-23T03:11:47.436Z,17.26
2018-05-23T03:14:15.160Z,17.35
2018-05-23T03:16:42.853Z,17.44
2018-05-23T03:19:10.525Z,17.33
2018-05-23T03:21:38.292Z,17.20
2018-05-23T03:24:06.261Z,17.31
2018-05-23T03:26:33.922Z,17.43
2018-05-23T03:29:01.688Z,17.46
2018-05-23T03:31:29.401Z,17.47
2018-05-23T03:33:57.217Z,17.47
2018-05-23T03:36:24.935Z,17.36
2018-05-23T03:38:52.748Z,17.45
2018-05-23T03:41:20.469Z,17.39
2018-05-23T03:43:48.274Z,17.35
2018-05-23T03:46:16.039Z,17.22
2018-05-23T03:48:43.805Z,17.39
2018-05-23T03:51:11.560Z,17.39
2018-05-23T03:53:39.376Z,17.27
2018-05-23T03:56:07.200Z,17.38
2018-05-23T03:58:34.964Z,17.38
2018-05-23T04:01:14.607Z,17.53
2018-05-23T04:03:54.249Z,17.30
2018-05-23T04:09:25.311Z,17.49
2018-05-23T04:11:53.076Z,17.55
2018-05-23T04:14:20.897Z,17.60
2018-05-23T04:16:48.707Z,17.54
2018-05-23T04:19:16.428Z,17.63
2018-05-23T04:21:44.137Z,17.68
2018-05-23T04:24:11.900Z,17.75
2018-05-23T04:26:39.605Z,17.69
2018-05-23T04:29:07.428Z,17.72
2018-05-23T04:31:35.302Z,17.79
2018-05-23T04:34:03.059Z,17.93
2018-05-23T04:36:30.724Z,17.97
2018-05-23T04:38:58.486Z,17.94
2018-05-23T04:41:26.252Z,17.91
2018-05-23T04:43:53.976Z,17.99
2018-05-23T04:46:21.741Z,18.02
2018-05-23T04:48:49.570Z,18.07
2018-05-23T04:51:17.411Z,18.06
2018-05-23T04:53:45.177Z,18.03
2018-05-23T04:56:12.937Z,17.99
2018-05-23T04:58:40.704Z,18.06
2018-05-23T05:01:08.470Z,18.09
2018-05-23T05:03:36.179Z,18.17
2018-05-23T05:06:04.207Z,18.04
2018-05-23T05:08:31.967Z,17.97
2018-05-23T05:10:59.840Z,17.87
2018-05-23T05:13:27.601Z,17.94
2018-05-23T05:15:55.467Z,18.05
2018-05-23T05:18:23.231Z,18.07
2018-05-23T05:20:50.995Z,18.07
2018-05-23T05:23:18.658Z,18.21
2018-05-23T05:25:46.527Z,18.34
2018-05-23T05:28:14.249Z,18.40
2018-05-23T05:30:42.056Z,18.28
2018-05-23T05:33:09.819Z,18.27
2018-05-23T05:35:37.653Z,18.06
2018-05-23T05:38:05.451Z,18.08
2018-05-23T05:40:33.316Z,18.12
2018-05-23T05:43:00.979Z,18.06
2018-05-23T05:45:28.842Z,18.06
2018-05-23T05:47:56.510Z,17.93
2018-05-23T05:50:24.375Z,17.93
2018-05-23T05:52:52.091Z,18.04
2018-05-23T05:55:19.903Z,18.05
2018-05-23T05:57:47.668Z,18.10
2018-05-23T06:00:15.433Z,18.20
2018-05-23T06:02:43.158Z,18.30
2018-05-23T06:05:10.963Z,18.42
2018-05-23T06:07:38.624Z,18.46
2018-05-23T06:10:06.338Z,18.37
2018-05-23T06:12:34.154Z,18.34
2018-05-23T06:15:01.968Z,18.34
2018-05-23T06:17:29.735Z,18.43
2018-05-23T06:19:57.550Z,18.49
2018-05-23T06:22:25.242Z,18.41
2018-05-23T06:24:53.077Z,18.33
2018-05-23T06:27:20.806Z,18.35
2018-05-23T06:29:48.544Z,18.36
2018-05-23T06:32:16.269Z,18.28
2018-05-23T06:34:43.935Z,18.26
2018-05-23T06:37:11.798Z,18.28
2018-05-23T06:39:39.511Z,18.20
2018-05-23T06:42:07.327Z,18.25
2018-05-23T06:44:35.092Z,18.20
2018-05-23T06:47:02.856Z,18.22
2018-05-23T06:49:30.603Z,18.24
2018-05-23T06:51:58.281Z,18.27
2018-05-23T06:54:25.945Z,18.32
2018-05-23T06:56:53.607Z,18.34
2018-05-23T06:59:21.272Z,18.37
2018-05-23T07:01:49.136Z,18.26
2018-05-23T07:04:16.854Z,18.36
2018-05-23T07:06:44.563Z,18.46
2018-05-23T07:09:12.225Z,18.50
2018-05-23T07:11:39.995Z,18.48
2018-05-23T07:14:07.754Z,18.48
2018-05-23T07:16:35.519Z,18.58
2018-05-23T07:19:03.283Z,18.58
2018-05-23T07:21:31.150Z,18.63
2018-05-23T07:23:58.864Z,18.72
2018-05-23T07:26:26.682Z,18.84
2018-05-23T07:28:54.433Z,18.94
2018-05-23T07:31:22.495Z,18.91
2018-05-23T07:33:50.156Z,19.00
2018-05-23T07:36:17.946Z,19.25
2018-05-23T07:38:45.706Z,19.38
2018-05-23T07:41:13.580Z,19.22
2018-05-23T07:43:41.439Z,19.36
2018-05-23T07:46:09.307Z,19.48
2018-05-23T07:48:37.033Z,19.52
2018-05-23T07:51:04.839Z,19.42
2018-05-23T07:53:32.608Z,19.54
2018-05-23T07:56:00.468Z,19.62
2018-05-23T07:58:28.169Z,19.60
2018-05-23T08:00:55.920Z,19.50
2018-05-23T08:03:23.862Z,19.55
2018-05-23T08:05:51.627Z,19.69
2018-05-23T08:08:19.343Z,19.73
2018-05-23T08:10:47.157Z,19.79
2018-05-23T08:13:14.819Z,19.91
2018-05-23T08:15:42.583Z,19.91
2018-05-23T08:18:10.348Z,20.08
2018-05-23T08:20:38.051Z,20.03
2018-05-23T08:23:05.662Z,19.98
2018-05-23T08:25:33.335Z,19.97
2018-05-23T08:28:00.996Z,19.73
2018-05-23T08:30:28.756Z,19.70
2018-05-23T08:32:56.525Z,19.64
2018-05-23T08:35:24.185Z,19.71
2018-05-23T08:37:51.849Z,19.88
2018-05-23T08:40:19.720Z,20.02
2018-05-23T08:42:47.382Z,20.11
2018-05-23T08:45:15.143Z,20.12
2018-05-23T08:47:42.908Z,20.21
2018-05-23T08:50:10.674Z,20.21
2018-05-23T08:52:38.499Z,20.20
2018-05-23T08:55:06.196Z,20.12
2018-05-23T08:57:33.966Z,20.07
2018-05-23T09:00:01.622Z,19.91
2018-05-23T09:02:29.393Z,19.74
2018-05-23T09:04:57.009Z,19.68
2018-05-23T09:07:24.716Z,19.76
2018-05-23T09:09:52.438Z,19.82
2018-05-23T09:12:20.458Z,20.00
2018-05-23T09:14:48.113Z,20.10
2018-05-23T09:17:15.864Z,20.11
2018-05-23T09:19:43.586Z,20.40
2018-05-23T09:22:11.307Z,20.47
2018-05-23T09:24:39.069Z,20.66
2018-05-23T09:27:06.729Z,20.81
2018-05-23T09:29:34.494Z,20.78
2018-05-23T09:32:02.259Z,20.92
2018-05-23T09:34:29.916Z,20.87
2018-05-23T09:36:57.583Z,20.93
2018-05-23T09:39:25.244Z,20.75
2018-05-23T09:41:52.958Z,20.69
2018-05-23T09:44:20.777Z,20.48
2018-05-23T09:46:48.642Z,20.24
2018-05-23T09:49:16.385Z,20.05
2018-05-23T09:51:44.108Z,19.95
2018-05-23T09:54:11.944Z,19.91
2018-05-23T09:56:39.691Z,19.91
2018-05-23T09:59:07.464Z,19.99
2018-05-23T10:01:35.898Z,20.18
2018-05-23T10:04:03.711Z,20.05
2018-05-23T10:06:31.477Z,20.05
2018-05-23T10:08:59.238Z,19.94
2018-05-23T10:11:26.894Z,20.03
2018-05-23T10:13:54.563Z,20.14
2018-05-23T10:16:22.329Z,20.39
2018-05-23T10:18:50.092Z,20.27
2018-05-23T10:21:17.754Z,20.31
2018-05-23T10:23:45.520Z,20.58
2018-05-23T10:26:13.282Z,20.78
2018-05-23T10:28:40.944Z,20.70
2018-05-23T10:31:08.712Z,20.63
2018-05-23T10:33:36.374Z,20.73
2018-05-23T10:36:04.239Z,20.70
2018-05-23T10:38:31.947Z,20.67
2018-05-23T10:40:59.667Z,20.70
2018-05-23T10:43:27.324Z,20.72
2018-05-23T10:45:54.982Z,20.76
2018-05-23T10:48:22.713Z,20.80
2018-05-23T10:50:50.982Z,20.99
2018-05-23T10:53:18.796Z,21.11
2018-05-23T10:55:46.458Z,21.31
2018-05-23T10:58:14.329Z,21.43
2018-05-23T11:00:42.093Z,21.62
2018-05-23T11:03:10.464Z,21.81
2018-05-23T11:05:38.332Z,22.04
2018-05-23T11:08:05.998Z,22.53
2018-05-23T11:10:33.716Z,22.78
2018-05-23T11:13:01.435Z,23.07
2018-05-23T11:15:29.189Z,23.34
2018-05-23T11:17:56.945Z,23.96
2018-05-23T11:20:24.711Z,24.42
2018-05-23T11:22:52.378Z,24.58
2018-05-23T11:25:20.042Z,24.98
2018-05-23T11:27:47.910Z,25.37
2018-05-23T11:30:15.674Z,25.84
2018-05-23T11:32:43.397Z,25.96
2018-05-23T11:35:11.204Z,25.84
2018-05-23T11:37:38.976Z,25.84
2018-05-23T11:40:06.734Z,25.44
2018-05-23T11:42:34.598Z,25.75
2018-05-23T11:45:02.257Z,26.00
2018-05-23T11:47:29.913Z,26.43
2018-05-23T11:49:57.641Z,26.18
2018-05-23T11:52:25.453Z,25.65
2018-05-23T11:54:53.216Z,25.48
2018-05-23T11:57:20.879Z,25.19
2018-05-23T11:59:48.588Z,25.54
2018-05-23T12:02:16.716Z,25.05
2018-05-23T12:04:44.486Z,24.89
2018-05-23T12:07:12.243Z,25.26
2018-05-23T12:09:39.952Z,25.51
2018-05-23T12:12:07.673Z,24.91
2018-05-23T12:14:35.331Z,25.18
2018-05-23T12:17:03.098Z,25.72
2018-05-23T12:19:31.061Z,25.85
2018-05-23T12:21:58.831Z,25.77
2018-05-23T12:24:26.699Z,25.88
2018-05-23T12:26:54.776Z,26.12
2018-05-23T12:29:22.429Z,25.78
2018-05-23T12:31:50.075Z,26.30
2018-05-23T12:34:17.859Z,26.35
2018-05-23T12:36:45.527Z,25.71
2018-05-23T12:39:13.284Z,26.45
2018-05-23T12:41:41.049Z,26.95
2018-05-23T12:44:08.812Z,27.19
2018-05-23T12:46:36.579Z,27.86
2018-05-23T12:49:04.241Z,27.39
2018-05-23T12:51:32.113Z,26.14
2018-05-23T12:53:59.872Z,26.42
2018-05-23T12:56:27.739Z,27.21
2018-05-23T12:58:55.598Z,27.97
2018-05-23T13:01:23.361Z,27.11
2018-05-23T13:03:51.078Z,26.39
2018-05-23T13:06:18.896Z,26.08
2018-05-23T13:08:46.667Z,26.51
2018-05-23T13:11:14.334Z,27.38
2018-05-23T13:13:42.132Z,28.13
2018-05-23T13:16:09.949Z,26.91
2018-05-23T13:18:37.815Z,26.53
2018-05-23T13:21:05.610Z,26.10
2018-05-23T13:23:33.457Z,26.79
2018-05-23T13:26:01.281Z,27.29
2018-05-23T13:28:29.057Z,26.52
2018-05-23T13:30:56.794Z,26.20
2018-05-23T13:33:24.620Z,26.60
2018-05-23T13:35:52.451Z,26.61
2018-05-23T13:38:20.486Z,26.64
2018-05-23T13:40:48.258Z,26.97
2018-05-23T13:43:16.088Z,27.41
2018-05-23T13:45:43.797Z,28.02
2018-05-23T13:48:11.613Z,28.52
2018-05-23T13:50:39.353Z,28.59
2018-05-23T13:53:07.039Z,27.20
2018-05-23T13:55:35.009Z,27.43
2018-05-23T13:58:02.793Z,27.73
2018-05-23T14:00:30.742Z,27.68
2018-05-23T14:02:58.705Z,27.56
2018-05-23T14:05:26.682Z,27.94
2018-05-23T14:07:54.623Z,28.49
2018-05-23T14:10:22.334Z,28.58
2018-05-23T14:12:50.613Z,27.85
2018-05-23T14:15:18.425Z,28.03
2018-05-23T14:17:46.404Z,28.17
2018-05-23T14:20:14.191Z,27.49
2018-05-23T14:22:41.851Z,26.52
2018-05-23T14:25:15.556Z,26.45
2018-05-23T14:27:43.218Z,26.52
2018-05-23T14:30:11.092Z,26.25
2018-05-23T14:32:38.952Z,26.71
2018-05-23T14:35:06.607Z,26.56
2018-05-23T14:37:34.379Z,27.22
2018-05-23T14:40:02.144Z,28.03
2018-05-23T14:42:30.112Z,27.93
2018-05-23T14:44:57.882Z,28.01
2018-05-23T14:47:25.642Z,27.76
2018-05-23T14:49:53.714Z,27.37
2018-05-23T14:52:21.478Z,27.41
2018-05-23T14:54:49.227Z,27.25
2018-05-23T14:57:17.242Z,26.92
2018-05-23T14:59:44.983Z,26.75
2018-05-23T15:02:12.947Z,26.72
2018-05-23T15:04:40.655Z,26.57
2018-05-23T15:07:08.566Z,24.80
2018-05-23T15:09:36.409Z,18.69
2018-05-23T15:12:04.066Z,16.44
2018-05-23T15:14:31.679Z,-143.52
2018-05-23T15:16:59.351Z,-143.52
2018-05-23T15:19:26.974Z,-143.52
2018-05-23T15:21:54.602Z,-143.52
2018-05-23T15:24:22.276Z,-143.52
2018-05-23T15:26:49.906Z,-143.52
2018-05-23T15:29:17.640Z,-143.52
2018-05-23T15:31:45.321Z,-143.52
2018-05-23T15:34:13.048Z,-143.52
2018-05-23T15:36:40.688Z,-143.52
2018-05-23T15:39:08.411Z,-143.52
2018-05-23T15:41:36.189Z,-143.52
2018-05-23T15:44:03.867Z,-143.52
2018-05-23T15:46:31.513Z,-143.52
2018-05-23T15:48:59.197Z,-143.52
2018-05-23T15:51:26.893Z,-143.52
2018-05-23T15:53:54.596Z,-143.52
